sensor_id;sensor_type;location;lat;lon;timestamp;pressure;altitude;pressure_sealevel;temperature;humidity
77737;BME280;66903;59.926;30.404;2023-03-14T00:00:35;98852.94;;;24.01;28.62
77737;BME280;66903;59.926;30.404;2023-03-14T00:11:38;98823.75;;;23.95;28.93
77737;BME280;66903;59.926;30.404;2023-03-14T00:16:57;98803.59;;;24.00;28.70
77737;BME280;66903;59.926;30.404;2023-03-14T00:22:32;98786.97;;;24.02;28.67
77737;BME280;66903;59.926;30.404;2023-03-14T00:27:51;98778.63;;;23.97;28.64
77737;BME280;66903;59.926;30.404;2023-03-14T00:32:52;98745.44;;;23.93;28.67
77737;BME280;66903;59.926;30.404;2023-03-14T00:37:53;98748.78;;;23.95;28.84
77737;BME280;66903;59.926;30.404;2023-03-14T00:42:53;98730.84;;;23.94;28.77
77737;BME280;66903;59.926;30.404;2023-03-14T00:48:15;98725.94;;;23.95;28.37
77737;BME280;66903;59.926;30.404;2023-03-14T00:59:06;98695.78;;;23.94;28.76
77737;BME280;66903;59.926;30.404;2023-03-14T01:04:15;98679.16;;;23.96;28.51
77737;BME280;66903;59.926;30.404;2023-03-14T01:09:43;98651.44;;;23.96;28.31
77737;BME280;66903;59.926;30.404;2023-03-14T01:21:16;98611.19;;;23.98;28.49
77737;BME280;66903;59.926;30.404;2023-03-14T01:26:19;98596.44;;;23.96;28.79
77737;BME280;66903;59.926;30.404;2023-03-14T01:31:26;98594.09;;;23.98;28.49
77737;BME280;66903;59.926;30.404;2023-03-14T01:36:39;98568.75;;;23.96;28.52
77737;BME280;66903;59.926;30.404;2023-03-14T02:10:27;98474.91;;;23.79;28.41
77737;BME280;66903;59.926;30.404;2023-03-14T02:15:32;98457.78;;;23.79;28.83
77737;BME280;66903;59.926;30.404;2023-03-14T02:21:13;98437.13;;;23.82;28.29
77737;BME280;66903;59.926;30.404;2023-03-14T02:32:30;98413.97;;;23.72;28.38
77737;BME280;66903;59.926;30.404;2023-03-14T02:43:12;98402.69;;;23.75;28.64
77737;BME280;66903;59.926;30.404;2023-03-14T02:48:22;98405.31;;;23.80;28.84
77737;BME280;66903;59.926;30.404;2023-03-14T03:17:09;98360.25;;;23.86;28.41
77737;BME280;66903;59.926;30.404;2023-03-14T03:28:02;98349.41;;;23.91;28.75
77737;BME280;66903;59.926;30.404;2023-03-14T03:33:18;98329.81;;;23.90;28.67
77737;BME280;66903;59.926;30.404;2023-03-14T03:43:59;98320.53;;;23.93;28.90
77737;BME280;66903;59.926;30.404;2023-03-14T03:49:00;98322.94;;;24.03;29.01
77737;BME280;66903;59.926;30.404;2023-03-14T03:54:00;98314.91;;;24.08;29.10
77737;BME280;66903;59.926;30.404;2023-03-14T03:59:01;98314.56;;;24.10;28.81
77737;BME280;66903;59.926;30.404;2023-03-14T04:04:01;98317.44;;;24.10;29.08
77737;BME280;66903;59.926;30.404;2023-03-14T04:09:02;98321.19;;;24.14;29.34
77737;BME280;66903;59.926;30.404;2023-03-14T04:14:05;98291.75;;;24.10;28.93
77737;BME280;66903;59.926;30.404;2023-03-14T04:19:06;98321.75;;;23.92;29.37
77737;BME280;66903;59.926;30.404;2023-03-14T04:24:06;98301.00;;;23.79;29.60
77737;BME280;66903;59.926;30.404;2023-03-14T04:29:07;98303.53;;;23.69;29.40
77737;BME280;66903;59.926;30.404;2023-03-14T04:34:07;98285.03;;;23.63;29.62
77737;BME280;66903;59.926;30.404;2023-03-14T04:39:08;98269.38;;;23.57;29.65
77737;BME280;66903;59.926;30.404;2023-03-14T04:44:08;98283.41;;;23.50;30.28
77737;BME280;66903;59.926;30.404;2023-03-14T04:49:09;98282.31;;;23.54;30.62
77737;BME280;66903;59.926;30.404;2023-03-14T04:54:09;98278.88;;;23.61;30.68
77737;BME280;66903;59.926;30.404;2023-03-14T04:59:10;98273.63;;;23.63;30.79
77737;BME280;66903;59.926;30.404;2023-03-14T05:04:10;98246.06;;;23.67;30.74
77737;BME280;66903;59.926;30.404;2023-03-14T05:09:11;98260.41;;;23.70;30.54
77737;BME280;66903;59.926;30.404;2023-03-14T05:14:11;98256.00;;;23.73;30.70
77737;BME280;66903;59.926;30.404;2023-03-14T05:19:12;98251.50;;;23.72;31.11
77737;BME280;66903;59.926;30.404;2023-03-14T05:24:12;98251.16;;;23.73;31.19
77737;BME280;66903;59.926;30.404;2023-03-14T05:29:13;98256.22;;;23.80;31.36
77737;BME280;66903;59.926;30.404;2023-03-14T05:34:13;98242.06;;;23.83;31.15
77737;BME280;66903;59.926;30.404;2023-03-14T05:39:14;98250.81;;;23.90;31.25
77737;BME280;66903;59.926;30.404;2023-03-14T05:44:14;98239.41;;;23.90;31.37
77737;BME280;66903;59.926;30.404;2023-03-14T05:49:15;98250.94;;;23.94;31.94
77737;BME280;66903;59.926;30.404;2023-03-14T05:54:15;98252.19;;;23.96;32.15
77737;BME280;66903;59.926;30.404;2023-03-14T05:59:16;98240.94;;;24.00;32.51
77737;BME280;66903;59.926;30.404;2023-03-14T06:04:16;98258.13;;;24.03;32.61
77737;BME280;66903;59.926;30.404;2023-03-14T06:09:17;98244.81;;;24.07;32.51
77737;BME280;66903;59.926;30.404;2023-03-14T06:14:19;98247.31;;;24.09;32.72
77737;BME280;66903;59.926;30.404;2023-03-14T06:19:20;98242.91;;;24.12;32.65
77737;BME280;66903;59.926;30.404;2023-03-14T06:24:21;98227.44;;;24.13;32.85
77737;BME280;66903;59.926;30.404;2023-03-14T06:29:21;98237.66;;;24.14;32.85
77737;BME280;66903;59.926;30.404;2023-03-14T06:34:22;98232.41;;;24.16;33.14
77737;BME280;66903;59.926;30.404;2023-03-14T06:39:22;98243.47;;;24.17;33.04
77737;BME280;66903;59.926;30.404;2023-03-14T06:44:23;98230.84;;;24.18;33.05
77737;BME280;66903;59.926;30.404;2023-03-14T06:49:23;98256.63;;;24.22;32.97
77737;BME280;66903;59.926;30.404;2023-03-14T06:54:24;98257.56;;;24.26;33.00
77737;BME280;66903;59.926;30.404;2023-03-14T06:59:24;98266.59;;;24.28;33.34
77737;BME280;66903;59.926;30.404;2023-03-14T07:04:25;98259.19;;;24.27;33.41
77737;BME280;66903;59.926;30.404;2023-03-14T07:09:25;98284.13;;;24.30;33.33
77737;BME280;66903;59.926;30.404;2023-03-14T07:14:26;98279.72;;;24.32;33.25
77737;BME280;66903;59.926;30.404;2023-03-14T07:19:26;98286.38;;;24.36;33.49
77737;BME280;66903;59.926;30.404;2023-03-14T07:24:27;98298.25;;;24.38;33.53
77737;BME280;66903;59.926;30.404;2023-03-14T07:29:27;98307.63;;;24.39;33.58
77737;BME280;66903;59.926;30.404;2023-03-14T07:34:28;98319.50;;;24.41;33.53
77737;BME280;66903;59.926;30.404;2023-03-14T07:39:28;98308.94;;;24.41;33.29
77737;BME280;66903;59.926;30.404;2023-03-14T07:44:29;98324.03;;;24.42;33.47
77737;BME280;66903;59.926;30.404;2023-03-14T07:49:29;98309.78;;;24.42;33.32
77737;BME280;66903;59.926;30.404;2023-03-14T07:54:30;98321.63;;;24.44;33.21
77737;BME280;66903;59.926;30.404;2023-03-14T07:59:30;98319.59;;;24.44;33.46
77737;BME280;66903;59.926;30.404;2023-03-14T08:04:31;98329.84;;;24.45;33.53
77737;BME280;66903;59.926;30.404;2023-03-14T08:09:33;98344.66;;;24.51;33.36
77737;BME280;66903;59.926;30.404;2023-03-14T08:14:33;98334.16;;;24.55;33.75
77737;BME280;66903;59.926;30.404;2023-03-14T08:19:34;98327.38;;;24.59;33.70
77737;BME280;66903;59.926;30.404;2023-03-14T08:24:35;98349.94;;;24.64;33.31
77737;BME280;66903;59.926;30.404;2023-03-14T08:29:35;98334.94;;;24.67;33.54
77737;BME280;66903;59.926;30.404;2023-03-14T08:34:36;98340.00;;;24.74;33.52
77737;BME280;66903;59.926;30.404;2023-03-14T08:39:37;98325.03;;;24.77;33.24
77737;BME280;66903;59.926;30.404;2023-03-14T08:44:38;98354.56;;;24.84;33.39
77737;BME280;66903;59.926;30.404;2023-03-14T08:49:39;98354.75;;;24.91;33.04
77737;BME280;66903;59.926;30.404;2023-03-14T08:54:39;98343.91;;;24.97;33.14
77737;BME280;66903;59.926;30.404;2023-03-14T08:59:40;98350.91;;;24.99;33.33
77737;BME280;66903;59.926;30.404;2023-03-14T09:04:40;98374.56;;;25.00;33.17
77737;BME280;66903;59.926;30.404;2023-03-14T09:09:41;98377.91;;;25.02;33.15
77737;BME280;66903;59.926;30.404;2023-03-14T09:14:44;98377.63;;;25.07;33.20
77737;BME280;66903;59.926;30.404;2023-03-14T09:20:00;98396.16;;;25.13;33.19
77737;BME280;66903;59.926;30.404;2023-03-14T09:25:01;98401.69;;;25.06;33.44
77737;BME280;66903;59.926;30.404;2023-03-14T09:30:02;98399.38;;;25.11;33.42
77737;BME280;66903;59.926;30.404;2023-03-14T09:35:03;98409.13;;;25.10;33.39
77737;BME280;66903;59.926;30.404;2023-03-14T09:40:04;98420.13;;;25.08;33.31
77737;BME280;66903;59.926;30.404;2023-03-14T09:45:17;98429.50;;;25.09;33.38
77737;BME280;66903;59.926;30.404;2023-03-14T09:50:19;98419.28;;;25.08;32.84
77737;BME280;66903;59.926;30.404;2023-03-14T09:55:21;98437.69;;;25.10;33.51
77737;BME280;66903;59.926;30.404;2023-03-14T10:00:26;98439.38;;;25.11;33.29
77737;BME280;66903;59.926;30.404;2023-03-14T10:05:27;98427.56;;;25.13;33.21
77737;BME280;66903;59.926;30.404;2023-03-14T10:10:30;98433.84;;;25.18;33.51
77737;BME280;66903;59.926;30.404;2023-03-14T10:15:32;98457.78;;;25.42;33.10
77737;BME280;66903;59.926;30.404;2023-03-14T10:25:42;98447.66;;;25.79;32.78
77737;BME280;66903;59.926;30.404;2023-03-14T10:30:45;98467.03;;;25.85;32.96
77737;BME280;66903;59.926;30.404;2023-03-14T10:35:54;98483.53;;;25.92;32.65
77737;BME280;66903;59.926;30.404;2023-03-14T10:40:56;98470.63;;;25.82;32.68
77737;BME280;66903;59.926;30.404;2023-03-14T10:46:01;98468.88;;;25.78;32.61
77737;BME280;66903;59.926;30.404;2023-03-14T10:56:35;98483.56;;;25.76;32.57
77737;BME280;66903;59.926;30.404;2023-03-14T11:01:55;98461.88;;;25.75;32.52
77737;BME280;66903;59.926;30.404;2023-03-14T11:07:27;98485.50;;;25.72;32.42
77737;BME280;66903;59.926;30.404;2023-03-14T11:23:24;98509.41;;;25.64;32.57
77737;BME280;66903;59.926;30.404;2023-03-14T11:28:47;98511.13;;;25.69;32.42
77737;BME280;66903;59.926;30.404;2023-03-14T11:34:11;98519.72;;;25.69;32.70
77737;BME280;66903;59.926;30.404;2023-03-14T11:39:26;98507.28;;;25.61;32.78
77737;BME280;66903;59.926;30.404;2023-03-14T11:44:56;98523.31;;;25.66;33.00
77737;BME280;66903;59.926;30.404;2023-03-14T11:50:32;98518.91;;;25.68;32.76
77737;BME280;66903;59.926;30.404;2023-03-14T11:55:38;98529.69;;;25.59;32.72
77737;BME280;66903;59.926;30.404;2023-03-14T12:00:50;98521.75;;;25.53;32.41
77737;BME280;66903;59.926;30.404;2023-03-14T12:16:35;98555.63;;;25.51;32.58
77737;BME280;66903;59.926;30.404;2023-03-14T12:22:05;98550.78;;;25.55;32.49
77737;BME280;66903;59.926;30.404;2023-03-14T12:27:13;98559.84;;;25.57;32.76
77737;BME280;66903;59.926;30.404;2023-03-14T12:32:33;98568.97;;;25.62;32.74
77737;BME280;66903;59.926;30.404;2023-03-14T12:37:37;98569.25;;;25.73;32.71
77737;BME280;66903;59.926;30.404;2023-03-14T12:42:57;98576.19;;;25.87;32.55
77737;BME280;66903;59.926;30.404;2023-03-14T12:48:23;98594.34;;;25.95;32.57
77737;BME280;66903;59.926;30.404;2023-03-14T12:59:09;98595.84;;;25.89;32.26
77737;BME280;66903;59.926;30.404;2023-03-14T13:04:14;98595.28;;;25.83;32.57
77737;BME280;66903;59.926;30.404;2023-03-14T13:14:33;98597.50;;;25.90;32.37
77737;BME280;66903;59.926;30.404;2023-03-14T13:19:33;98604.44;;;25.89;32.51
77737;BME280;66903;59.926;30.404;2023-03-14T13:24:34;98610.88;;;25.86;32.57
77737;BME280;66903;59.926;30.404;2023-03-14T13:29:35;98612.44;;;25.83;32.68
77737;BME280;66903;59.926;30.404;2023-03-14T13:34:37;98622.50;;;25.77;32.54
77737;BME280;66903;59.926;30.404;2023-03-14T13:39:39;98624.88;;;25.75;32.59
77737;BME280;66903;59.926;30.404;2023-03-14T13:44:40;98626.38;;;25.69;32.73
77737;BME280;66903;59.926;30.404;2023-03-14T13:49:40;98629.03;;;25.62;32.51
77737;BME280;66903;59.926;30.404;2023-03-14T13:54:41;98641.91;;;25.56;32.86
77737;BME280;66903;59.926;30.404;2023-03-14T13:59:42;98656.84;;;25.50;33.06
77737;BME280;66903;59.926;30.404;2023-03-14T14:04:42;98675.09;;;25.45;33.00
77737;BME280;66903;59.926;30.404;2023-03-14T14:09:46;98676.75;;;25.46;32.75
77737;BME280;66903;59.926;30.404;2023-03-14T14:15:01;98664.16;;;25.47;32.74
77737;BME280;66903;59.926;30.404;2023-03-14T14:20:04;98680.47;;;25.47;33.25
77737;BME280;66903;59.926;30.404;2023-03-14T14:25:06;98690.69;;;25.48;33.41
77737;BME280;66903;59.926;30.404;2023-03-14T14:30:31;98684.59;;;25.49;33.10
77737;BME280;66903;59.926;30.404;2023-03-14T14:35:34;98687.72;;;25.44;33.44
77737;BME280;66903;59.926;30.404;2023-03-14T14:40:44;98690.22;;;25.46;33.48
77737;BME280;66903;59.926;30.404;2023-03-14T14:45:57;98690.09;;;25.42;33.55
77737;BME280;66903;59.926;30.404;2023-03-14T14:51:06;98699.16;;;25.44;33.45
77737;BME280;66903;59.926;30.404;2023-03-14T14:56:19;98696.41;;;25.48;33.32
77737;BME280;66903;59.926;30.404;2023-03-14T15:01:35;98693.44;;;25.44;33.35
77737;BME280;66903;59.926;30.404;2023-03-14T15:06:49;98707.38;;;25.46;33.17
77737;BME280;66903;59.926;30.404;2023-03-14T15:12:05;98717.63;;;25.47;33.34
77737;BME280;66903;59.926;30.404;2023-03-14T15:17:11;98708.84;;;25.40;33.04
77737;BME280;66903;59.926;30.404;2023-03-14T15:22:12;98718.25;;;25.40;33.31
77737;BME280;66903;59.926;30.404;2023-03-14T15:27:17;98722.28;;;25.39;33.42
77737;BME280;66903;59.926;30.404;2023-03-14T15:32:18;98732.88;;;25.39;33.09
77737;BME280;66903;59.926;30.404;2023-03-14T15:37:18;98740.13;;;25.36;33.47
77737;BME280;66903;59.926;30.404;2023-03-14T15:42:19;98744.91;;;25.32;33.30
77737;BME280;66903;59.926;30.404;2023-03-14T15:47:19;98759.09;;;25.29;33.22
77737;BME280;66903;59.926;30.404;2023-03-14T15:52:20;98758.59;;;25.27;33.28
77737;BME280;66903;59.926;30.404;2023-03-14T15:57:20;98775.28;;;25.25;33.47
77737;BME280;66903;59.926;30.404;2023-03-14T16:02:21;98776.47;;;25.24;34.96
77737;BME280;66903;59.926;30.404;2023-03-14T16:07:22;98783.25;;;25.31;34.82
77737;BME280;66903;59.926;30.404;2023-03-14T16:12:22;98784.56;;;25.34;35.47
77737;BME280;66903;59.926;30.404;2023-03-14T16:17:23;98817.81;;;25.38;35.70
77737;BME280;66903;59.926;30.404;2023-03-14T16:22:23;98830.53;;;25.41;35.68
77737;BME280;66903;59.926;30.404;2023-03-14T16:27:24;98843.19;;;25.40;35.70
77737;BME280;66903;59.926;30.404;2023-03-14T16:32:25;98844.03;;;25.40;35.76
77737;BME280;66903;59.926;30.404;2023-03-14T16:37:25;98841.50;;;25.39;35.55
77737;BME280;66903;59.926;30.404;2023-03-14T16:42:26;98846.03;;;25.40;35.65
77737;BME280;66903;59.926;30.404;2023-03-14T16:47:27;98862.34;;;25.39;35.63
77737;BME280;66903;59.926;30.404;2023-03-14T16:52:29;98869.28;;;25.38;34.96
77737;BME280;66903;59.926;30.404;2023-03-14T16:57:30;98881.72;;;25.34;34.90
77737;BME280;66903;59.926;30.404;2023-03-14T17:02:30;98882.09;;;25.32;35.21
77737;BME280;66903;59.926;30.404;2023-03-14T17:07:31;98893.88;;;25.31;35.06
77737;BME280;66903;59.926;30.404;2023-03-14T17:12:31;98898.66;;;25.27;34.99
77737;BME280;66903;59.926;30.404;2023-03-14T17:17:32;98911.75;;;25.28;34.99
77737;BME280;66903;59.926;30.404;2023-03-14T17:22:32;98919.38;;;25.24;35.56
77737;BME280;66903;59.926;30.404;2023-03-14T17:27:33;98922.22;;;25.24;35.86
77737;BME280;66903;59.926;30.404;2023-03-14T17:32:35;98930.94;;;25.27;36.61
77737;BME280;66903;59.926;30.404;2023-03-14T17:37:35;98931.03;;;25.31;37.13
77737;BME280;66903;59.926;30.404;2023-03-14T17:42:36;98924.97;;;25.32;37.36
77737;BME280;66903;59.926;30.404;2023-03-14T17:47:36;98937.72;;;25.35;36.77
77737;BME280;66903;59.926;30.404;2023-03-14T17:52:38;98950.34;;;25.34;36.00
77737;BME280;66903;59.926;30.404;2023-03-14T17:57:39;98936.66;;;25.27;36.05
77737;BME280;66903;59.926;30.404;2023-03-14T18:02:40;98941.41;;;25.23;35.69
77737;BME280;66903;59.926;30.404;2023-03-14T18:07:40;98944.13;;;24.09;34.50
77737;BME280;66903;59.926;30.404;2023-03-14T18:12:42;98945.09;;;22.25;36.10
77737;BME280;66903;59.926;30.404;2023-03-14T18:17:42;98941.38;;;20.69;37.43
77737;BME280;66903;59.926;30.404;2023-03-14T18:22:43;98941.38;;;19.59;39.10
77737;BME280;66903;59.926;30.404;2023-03-14T18:27:43;98934.59;;;18.78;40.08
77737;BME280;66903;59.926;30.404;2023-03-14T18:32:44;98944.75;;;18.20;40.06
77737;BME280;66903;59.926;30.404;2023-03-14T18:37:44;98942.88;;;17.79;40.33
77737;BME280;66903;59.926;30.404;2023-03-14T18:42:45;98945.06;;;17.07;40.72
77737;BME280;66903;59.926;30.404;2023-03-14T18:47:45;98936.00;;;16.34;41.97
77737;BME280;66903;59.926;30.404;2023-03-14T18:52:46;98923.81;;;16.15;42.05
77737;BME280;66903;59.926;30.404;2023-03-14T18:57:46;98946.63;;;16.14;42.08
77737;BME280;66903;59.926;30.404;2023-03-14T19:02:48;98950.09;;;16.06;42.35
77737;BME280;66903;59.926;30.404;2023-03-14T19:07:49;98943.41;;;15.97;42.51
77737;BME280;66903;59.926;30.404;2023-03-14T19:12:50;98953.03;;;15.91;42.83
77737;BME280;66903;59.926;30.404;2023-03-14T19:17:50;98944.44;;;15.77;43.17
77737;BME280;66903;59.926;30.404;2023-03-14T19:22:51;98952.78;;;15.87;39.46
77737;BME280;66903;59.926;30.404;2023-03-14T19:27:51;98946.19;;;15.68;42.92
77737;BME280;66903;59.926;30.404;2023-03-14T19:32:51;98942.81;;;15.66;39.26
77737;BME280;66903;59.926;30.404;2023-03-14T19:37:52;98943.69;;;15.18;43.50
77737;BME280;66903;59.926;30.404;2023-03-14T19:42:52;98936.72;;;15.05;39.79
77737;BME280;66903;59.926;30.404;2023-03-14T19:47:53;98937.16;;;14.69;44.49
77737;BME280;66903;59.926;30.404;2023-03-14T19:52:55;98941.63;;;14.75;44.43
77737;BME280;66903;59.926;30.404;2023-03-14T19:57:56;98930.91;;;14.82;44.91
77737;BME280;66903;59.926;30.404;2023-03-14T20:02:56;98935.81;;;14.56;44.92
77737;BME280;66903;59.926;30.404;2023-03-14T20:07:57;98924.91;;;14.34;45.19
77737;BME280;66903;59.926;30.404;2023-03-14T20:12:58;98922.69;;;14.31;45.52
77737;BME280;66903;59.926;30.404;2023-03-14T20:17:58;98917.63;;;14.28;45.46
77737;BME280;66903;59.926;30.404;2023-03-14T20:22:59;98899.88;;;14.43;47.41
77737;BME280;66903;59.926;30.404;2023-03-14T20:28:00;98896.69;;;16.24;46.35
77737;BME280;66903;59.926;30.404;2023-03-14T20:33:01;98898.44;;;18.03;43.94
77737;BME280;66903;59.926;30.404;2023-03-14T20:38:04;98900.94;;;19.31;42.12
77737;BME280;66903;59.926;30.404;2023-03-14T20:43:04;98920.94;;;20.28;40.66
77737;BME280;66903;59.926;30.404;2023-03-14T20:48:05;98915.28;;;20.98;40.20
77737;BME280;66903;59.926;30.404;2023-03-14T20:53:05;98913.78;;;21.57;39.68
77737;BME280;66903;59.926;30.404;2023-03-14T20:58:06;98907.81;;;22.10;39.34
77737;BME280;66903;59.926;30.404;2023-03-14T21:03:06;98922.78;;;22.53;39.36
77737;BME280;66903;59.926;30.404;2023-03-14T21:08:07;98914.66;;;22.89;38.86
77737;BME280;66903;59.926;30.404;2023-03-14T21:13:08;98912.34;;;23.20;38.68
77737;BME280;66903;59.926;30.404;2023-03-14T21:18:08;98911.19;;;23.50;38.43
77737;BME280;66903;59.926;30.404;2023-03-14T21:23:09;98907.28;;;23.75;37.85
77737;BME280;66903;59.926;30.404;2023-03-14T21:28:11;98899.91;;;23.95;37.93
77737;BME280;66903;59.926;30.404;2023-03-14T21:33:11;98904.31;;;24.13;37.39
77737;BME280;66903;59.926;30.404;2023-03-14T21:38:14;98905.72;;;24.28;37.64
77737;BME280;66903;59.926;30.404;2023-03-14T21:43:15;98897.19;;;24.40;37.44
77737;BME280;66903;59.926;30.404;2023-03-14T21:48:20;98884.97;;;24.51;36.96
77737;BME280;66903;59.926;30.404;2023-03-14T21:53:26;98883.31;;;24.62;36.69
77737;BME280;66903;59.926;30.404;2023-03-14T21:58:29;98882.75;;;24.69;36.76
77737;BME280;66903;59.926;30.404;2023-03-14T22:03:29;98873.16;;;24.73;36.56
77737;BME280;66903;59.926;30.404;2023-03-14T22:08:33;98871.84;;;24.83;36.64
77737;BME280;66903;59.926;30.404;2023-03-14T22:13:33;98871.38;;;24.93;36.23
77737;BME280;66903;59.926;30.404;2023-03-14T22:18:34;98886.75;;;25.00;36.18
77737;BME280;66903;59.926;30.404;2023-03-14T22:23:34;98882.47;;;25.06;36.08
77737;BME280;66903;59.926;30.404;2023-03-14T22:28:35;98877.00;;;25.13;36.44
77737;BME280;66903;59.926;30.404;2023-03-14T22:33:54;98884.59;;;25.22;35.91
77737;BME280;66903;59.926;30.404;2023-03-14T22:38:57;98886.97;;;25.19;36.07
77737;BME280;66903;59.926;30.404;2023-03-14T22:43:58;98897.72;;;25.23;35.92
77737;BME280;66903;59.926;30.404;2023-03-14T22:48:59;98887.94;;;25.24;35.71
77737;BME280;66903;59.926;30.404;2023-03-14T22:53:59;98882.22;;;25.24;35.28
77737;BME280;66903;59.926;30.404;2023-03-14T22:59:01;98871.41;;;25.17;35.56
77737;BME280;66903;59.926;30.404;2023-03-14T23:04:38;98872.31;;;25.21;35.68
77737;BME280;66903;59.926;30.404;2023-03-14T23:10:19;98885.31;;;25.18;35.43
77737;BME280;66903;59.926;30.404;2023-03-14T23:15:29;98884.47;;;25.18;35.49
77737;BME280;66903;59.926;30.404;2023-03-14T23:20:29;98886.50;;;25.17;34.98
77737;BME280;66903;59.926;30.404;2023-03-14T23:25:39;98871.88;;;25.19;35.56
77737;BME280;66903;59.926;30.404;2023-03-14T23:30:40;98875.91;;;25.18;35.31
77737;BME280;66903;59.926;30.404;2023-03-14T23:35:41;98878.03;;;25.21;35.10
77737;BME280;66903;59.926;30.404;2023-03-14T23:40:42;98881.38;;;25.23;35.09
77737;BME280;66903;59.926;30.404;2023-03-14T23:51:36;98886.28;;;25.23;34.83
77737;BME280;66903;59.926;30.404;2023-03-14T23:56:37;98880.44;;;25.19;34.91
